createdAt,value
2022-09-09T00:02:24.679Z,337.45
2022-09-09T00:05:00.917Z,336.55
2022-09-09T00:07:44.298Z,347.80
2022-09-09T00:10:16.901Z,340.02
2022-09-09T00:12:58.421Z,344.75
2022-09-09T00:15:34.523Z,338.33
2022-09-09T00:18:16.427Z,341.13
2022-09-09T00:20:56.759Z,341.95
2022-09-09T00:23:31.053Z,347.80
2022-09-09T00:26:03.393Z,356.77
2022-09-09T00:28:33.201Z,359.15
2022-09-09T00:31:13.844Z,358.85
2022-09-09T00:33:42.104Z,358.17
2022-09-09T00:36:16.654Z,363.20
2022-09-09T00:38:50.171Z,359.55
2022-09-09T00:41:27.884Z,354.95
2022-09-09T00:44:12.066Z,348.47
2022-09-09T00:47:08.399Z,346.38
2022-09-09T00:50:10.140Z,355.38
2022-09-09T00:52:58.569Z,363.67
2022-09-09T00:55:51.348Z,361.77
2022-09-09T00:58:17.948Z,362.35
2022-09-09T01:00:53.951Z,361.25
2022-09-09T01:03:33.986Z,364.07
2022-09-09T01:06:14.189Z,356.48
2022-09-09T01:09:12.748Z,360.35
2022-09-09T01:12:00.574Z,367.60
2022-09-09T01:14:37.011Z,359.77
2022-09-09T01:17:25.613Z,358.60
2022-09-09T01:20:07.890Z,348.65
2022-09-09T01:23:02.271Z,355.10
2022-09-09T01:26:01.952Z,352.38
2022-09-09T01:28:29.961Z,365.10
2022-09-09T01:31:05.142Z,369.95
2022-09-09T01:33:38.713Z,356.50
2022-09-09T01:36:19.006Z,350.75
2022-09-09T01:38:49.584Z,357.77
2022-09-09T01:41:18.175Z,352.75
2022-09-09T01:43:52.936Z,359.92
2022-09-09T01:46:22.928Z,357.20
2022-09-09T01:48:52.144Z,366.58
2022-09-09T01:51:19.073Z,364.73
2022-09-09T01:53:47.231Z,364.60
2022-09-09T01:56:35.887Z,369.98
2022-09-09T01:59:24.227Z,360.93
2022-09-09T02:02:20.484Z,363.63
2022-09-09T02:05:36.646Z,357.43
2022-09-09T02:08:08.895Z,360.20
2022-09-09T02:10:57.399Z,370.20
2022-09-09T02:13:37.539Z,351.35
2022-09-09T02:16:14.175Z,356.23
2022-09-09T02:18:55.960Z,365.90
2022-09-09T02:21:32.570Z,353.65
2022-09-09T02:24:05.459Z,367.13
2022-09-09T02:26:42.164Z,365.38
2022-09-09T02:29:15.865Z,365.88
2022-09-09T02:31:45.201Z,369.10
2022-09-09T02:34:21.925Z,372.33
2022-09-09T02:36:50.620Z,365.60
2022-09-09T02:39:17.362Z,365.15
2022-09-09T02:41:44.051Z,366.25
2022-09-09T02:44:17.882Z,359.38
2022-09-09T02:47:05.794Z,356.35
2022-09-09T02:49:35.611Z,351.67
2022-09-09T02:52:09.783Z,365.23
2022-09-09T02:54:40.900Z,358.33
2022-09-09T02:57:22.073Z,368.50
2022-09-09T02:59:50.991Z,352.25
2022-09-09T03:02:17.807Z,349.48
2022-09-09T03:04:51.860Z,365.67
2022-09-09T03:07:22.394Z,361.30
2022-09-09T03:09:51.045Z,360.10
2022-09-09T03:12:17.681Z,360.80
2022-09-09T03:14:46.357Z,351.75
2022-09-09T03:17:13.556Z,340.23
2022-09-09T03:19:49.145Z,341.38
2022-09-09T03:22:15.821Z,350.02
2022-09-09T03:24:44.174Z,349.08
2022-09-09T03:27:10.798Z,365.10
2022-09-09T03:29:38.863Z,355.25
2022-09-09T03:32:11.044Z,357.25
2022-09-09T03:34:41.162Z,350.00
2022-09-09T03:37:10.920Z,366.20
2022-09-09T03:39:37.816Z,361.58
2022-09-09T03:42:04.971Z,352.45
2022-09-09T03:44:32.541Z,359.25
2022-09-09T03:47:01.568Z,352.30
2022-09-09T03:49:29.709Z,346.38
2022-09-09T03:51:58.115Z,350.58
2022-09-09T03:54:25.958Z,337.27
2022-09-09T03:56:52.718Z,327.85
2022-09-09T03:59:21.570Z,355.60
2022-09-09T04:01:48.435Z,340.93
2022-09-09T04:04:15.029Z,336.93
2022-09-09T04:06:41.789Z,342.25
2022-09-09T04:09:08.414Z,343.15
2022-09-09T04:11:35.281Z,354.00
2022-09-09T04:14:02.165Z,353.67
2022-09-09T04:16:30.431Z,347.23
2022-09-09T04:18:57.107Z,345.75
2022-09-09T04:21:24.184Z,348.95
2022-09-09T04:23:50.942Z,348.15
2022-09-09T04:26:19.010Z,366.13
2022-09-09T04:28:45.919Z,362.80
2022-09-09T04:31:21.182Z,349.60
2022-09-09T04:33:49.358Z,351.77
2022-09-09T04:36:19.185Z,345.88
2022-09-09T04:38:47.008Z,343.52
2022-09-09T04:41:14.707Z,335.80
2022-09-09T04:43:44.582Z,348.63
2022-09-09T04:46:12.517Z,335.88
2022-09-09T04:48:39.118Z,337.67
2022-09-09T04:51:11.917Z,356.57
2022-09-09T04:53:39.069Z,351.83
2022-09-09T04:56:14.493Z,358.83
2022-09-09T04:58:45.397Z,352.70
2022-09-09T05:01:19.201Z,344.92
2022-09-09T05:03:47.353Z,344.35
2022-09-09T05:06:22.306Z,336.63
2022-09-09T05:08:51.750Z,336.90
2022-09-09T05:11:28.534Z,349.05
2022-09-09T05:14:02.367Z,332.52
2022-09-09T05:16:31.781Z,322.90
2022-09-09T05:18:58.532Z,358.50
2022-09-09T05:21:27.624Z,349.33
2022-09-09T05:23:55.081Z,365.65
2022-09-09T05:26:23.211Z,360.80
2022-09-09T05:28:52.636Z,345.35
2022-09-09T05:31:19.895Z,343.75
2022-09-09T05:33:50.361Z,340.00
2022-09-09T05:36:19.844Z,346.50
2022-09-09T05:38:48.561Z,306.15
2022-09-09T05:41:16.817Z,331.37
2022-09-09T05:43:45.452Z,339.95
2022-09-09T05:46:15.203Z,343.70
2022-09-09T05:48:50.993Z,327.52
2022-09-09T05:51:22.479Z,330.27
2022-09-09T05:53:50.004Z,320.48
2022-09-09T05:56:26.152Z,317.87
2022-09-09T05:58:55.108Z,308.25
2022-09-09T06:01:25.333Z,319.52
2022-09-09T06:03:53.225Z,304.77
2022-09-09T06:06:32.460Z,325.77
2022-09-09T06:09:00.207Z,320.90
2022-09-09T06:11:32.492Z,329.30
2022-09-09T06:14:00.911Z,345.65
2022-09-09T06:16:30.646Z,332.33
2022-09-09T06:18:58.927Z,320.65
2022-09-09T06:21:28.897Z,324.52
2022-09-09T06:24:00.190Z,308.98
2022-09-09T06:26:31.470Z,317.33
2022-09-09T06:28:59.254Z,311.25
2022-09-09T06:31:30.124Z,319.57
2022-09-09T06:34:02.225Z,323.10
2022-09-09T06:36:33.029Z,315.73
2022-09-09T06:39:01.151Z,316.25
2022-09-09T06:41:30.141Z,311.10
2022-09-09T06:43:57.630Z,304.67
2022-09-09T06:46:34.060Z,321.23
2022-09-09T06:49:01.913Z,318.73
2022-09-09T06:51:33.455Z,329.38
2022-09-09T06:54:03.093Z,334.95
2022-09-09T06:56:37.388Z,329.48
2022-09-09T06:59:09.586Z,319.25
2022-09-09T07:01:40.793Z,326.45
2022-09-09T07:04:12.062Z,331.13
2022-09-09T07:06:47.059Z,319.50
2022-09-09T07:09:18.051Z,312.92
2022-09-09T07:11:50.317Z,309.23
2022-09-09T07:14:18.681Z,313.27
2022-09-09T07:16:48.623Z,313.23
2022-09-09T07:19:17.607Z,311.20
2022-09-09T07:21:46.090Z,311.30
2022-09-09T07:24:15.287Z,320.13
2022-09-09T07:26:43.217Z,322.45
2022-09-09T07:29:09.874Z,310.48
2022-09-09T07:31:38.845Z,326.65
2022-09-09T07:34:09.645Z,316.35
2022-09-09T07:36:41.463Z,312.48
2022-09-09T07:39:14.504Z,310.27
2022-09-09T07:41:50.086Z,315.88
2022-09-09T07:44:25.800Z,314.10
2022-09-09T07:47:08.995Z,322.15
2022-09-09T07:49:40.050Z,319.25
2022-09-09T07:52:08.536Z,317.13
2022-09-09T07:54:36.452Z,320.97
2022-09-09T07:57:05.483Z,324.95
2022-09-09T07:59:35.066Z,319.77
2022-09-09T08:02:02.964Z,319.80
2022-09-09T08:04:32.431Z,308.95
2022-09-09T08:07:02.019Z,330.38
2022-09-09T08:09:30.537Z,307.85
2022-09-09T08:12:34.911Z,327.83
2022-09-09T08:15:03.764Z,333.20
2022-09-09T08:17:33.870Z,330.75
2022-09-09T08:20:06.070Z,341.50
2022-09-09T08:22:33.597Z,322.35
2022-09-09T08:25:00.298Z,322.67
2022-09-09T08:27:27.035Z,324.27
2022-09-09T08:29:54.875Z,320.95
2022-09-09T08:32:21.639Z,322.20
2022-09-09T08:34:54.516Z,321.47
2022-09-09T08:37:23.154Z,325.20
2022-09-09T08:39:54.022Z,319.17
2022-09-09T08:42:36.555Z,333.67
2022-09-09T08:45:18.382Z,327.88
2022-09-09T08:47:48.163Z,313.25
2022-09-09T08:50:28.213Z,319.33
2022-09-09T08:53:09.303Z,315.05
2022-09-09T08:55:42.889Z,307.33
2022-09-09T08:58:17.084Z,311.58
2022-09-09T09:01:17.381Z,309.80
2022-09-09T09:04:22.378Z,304.52
2022-09-09T09:07:10.458Z,301.17
2022-09-09T09:09:42.073Z,302.17
2022-09-09T09:12:18.831Z,311.90
2022-09-09T09:14:48.460Z,303.90
2022-09-09T09:17:26.393Z,300.48
2022-09-09T09:19:54.884Z,269.67
2022-09-09T09:22:48.840Z,263.55
2022-09-09T09:25:18.956Z,258.88
2022-09-09T09:28:06.116Z,230.07
2022-09-09T09:30:40.849Z,230.07
2022-09-09T09:33:19.119Z,241.45
2022-09-09T09:35:46.784Z,249.13
2022-09-09T09:41:10.747Z,248.50
2022-09-09T09:43:40.977Z,253.45
2022-09-09T09:46:26.763Z,255.40
2022-09-09T09:49:03.086Z,256.17
2022-09-09T09:51:33.263Z,243.77
2022-09-09T09:54:14.933Z,253.90
2022-09-09T09:56:44.518Z,257.00
2022-09-09T09:59:39.311Z,262.13
2022-09-09T10:02:17.887Z,254.68
2022-09-09T10:04:47.568Z,254.90
2022-09-09T10:07:20.612Z,243.20
2022-09-09T10:09:54.361Z,239.63
2022-09-09T10:12:35.618Z,236.77
2022-09-09T10:15:30.139Z,219.15
2022-09-09T10:18:32.521Z,235.40
2022-09-09T10:21:01.859Z,242.48
2022-09-09T10:23:28.345Z,177.85
2022-09-09T10:26:17.253Z,182.75
2022-09-09T10:29:06.637Z,180.45
2022-09-09T10:31:42.885Z,181.88
2022-09-09T10:34:32.480Z,179.10
2022-09-09T10:37:03.747Z,164.18
2022-09-09T10:39:43.193Z,158.55
2022-09-09T10:42:20.311Z,148.77
2022-09-09T10:45:38.350Z,146.65
2022-09-09T10:48:21.790Z,158.05
2022-09-09T10:51:12.029Z,142.75
2022-09-09T10:53:52.929Z,121.93
2022-09-09T10:56:22.593Z,130.30
2022-09-09T10:59:02.136Z,112.82
2022-09-09T11:01:41.495Z,118.40
2022-09-09T11:04:23.136Z,130.00
2022-09-09T11:06:53.620Z,113.43
2022-09-09T11:09:24.313Z,119.82
2022-09-09T11:11:55.414Z,134.90
2022-09-09T11:14:28.685Z,128.52
2022-09-09T11:17:03.093Z,125.90
2022-09-09T11:19:36.809Z,146.57
2022-09-09T11:22:16.871Z,149.82
2022-09-09T11:25:11.307Z,178.77
2022-09-09T11:27:55.243Z,172.35
2022-09-09T11:30:53.841Z,153.65
2022-09-09T11:33:38.604Z,144.95
2022-09-09T11:36:35.686Z,171.85
2022-09-09T11:39:08.051Z,191.02
2022-09-09T11:41:38.147Z,153.73
2022-09-09T11:44:21.510Z,133.00
2022-09-09T11:46:53.079Z,145.27
2022-09-09T11:49:29.736Z,149.43
2022-09-09T11:51:56.314Z,174.98
2022-09-09T11:54:32.347Z,162.32
2022-09-09T11:56:59.505Z,189.07
2022-09-09T11:59:33.832Z,200.60
2022-09-09T12:02:00.410Z,232.82
2022-09-09T12:04:26.997Z,243.70
2022-09-09T12:06:55.613Z,235.77
2022-09-09T12:09:33.479Z,266.55
2022-09-09T12:12:24.997Z,246.35
2022-09-09T12:15:18.812Z,259.83
2022-09-09T12:17:54.457Z,243.18
2022-09-09T12:20:36.996Z,238.88
2022-09-09T12:23:43.589Z,242.70
2022-09-09T12:26:41.027Z,231.00
2022-09-09T12:29:20.072Z,212.10
2022-09-09T12:32:03.092Z,188.35
2022-09-09T12:34:45.790Z,187.02
2022-09-09T12:37:46.206Z,187.57
2022-09-09T12:40:27.868Z,168.48
2022-09-09T12:42:56.173Z,154.95
2022-09-09T12:45:26.300Z,150.63
2022-09-09T12:48:01.502Z,136.02
2022-09-09T12:50:44.581Z,151.00
2022-09-09T12:53:26.520Z,130.60
2022-09-09T12:55:57.884Z,98.28
2022-09-09T12:58:26.103Z,94.13
2022-09-09T13:00:57.111Z,79.90
2022-09-09T13:03:24.350Z,77.38
2022-09-09T13:05:51.539Z,78.72
2022-09-09T13:08:21.520Z,74.47
2022-09-09T13:11:00.141Z,73.10
2022-09-09T13:13:36.070Z,81.47
2022-09-09T13:16:06.581Z,62.97
2022-09-09T13:18:36.979Z,35.05
2022-09-09T13:21:04.123Z,24.48
2022-09-09T13:23:33.167Z,15.53
2022-09-09T13:26:02.637Z,8.95
2022-09-09T13:28:33.839Z,6.63
2022-09-09T13:31:04.316Z,5.68
2022-09-09T13:33:38.143Z,5.10
2022-09-09T13:36:10.113Z,4.82
2022-09-09T13:38:59.476Z,4.30
2022-09-09T13:41:45.262Z,3.90
2022-09-09T13:44:28.333Z,3.90
2022-09-09T13:47:24.280Z,3.67
2022-09-09T13:49:50.956Z,3.70
2022-09-09T13:52:19.866Z,4.05
2022-09-09T13:54:52.051Z,4.10
2022-09-09T13:57:26.741Z,3.70
2022-09-09T14:00:06.833Z,3.35
2022-09-09T14:02:34.857Z,3.67
2022-09-09T14:05:01.699Z,3.85
2022-09-09T14:07:30.698Z,3.72
2022-09-09T14:09:57.472Z,3.13
2022-09-09T14:12:24.970Z,4.25
2022-09-09T14:14:51.947Z,3.50
2022-09-09T14:17:18.509Z,3.20
2022-09-09T14:19:48.354Z,4.25
2022-09-09T14:22:15.513Z,3.97
2022-09-09T14:24:42.177Z,4.60
2022-09-09T14:27:08.845Z,3.88
2022-09-09T14:29:35.389Z,4.47
2022-09-09T14:32:04.361Z,5.28
2022-09-09T14:34:33.342Z,4.82
2022-09-09T14:37:00.139Z,4.82
2022-09-09T14:39:27.229Z,3.78
2022-09-09T14:41:53.876Z,3.63
2022-09-09T14:44:20.612Z,3.75
2022-09-09T14:46:47.262Z,5.45
2022-09-09T14:49:13.883Z,5.13
2022-09-09T14:51:40.565Z,8.77
2022-09-09T14:54:07.399Z,5.03
2022-09-09T14:56:37.956Z,4.82
2022-09-09T14:59:04.975Z,4.80
2022-09-09T15:01:33.128Z,4.22
2022-09-09T15:04:01.805Z,4.40
2022-09-09T15:06:30.974Z,4.30
2022-09-09T15:09:00.386Z,4.10
2022-09-09T15:11:32.969Z,4.35
2022-09-09T15:13:59.703Z,4.57
2022-09-09T15:16:28.976Z,5.43
2022-09-09T15:18:58.132Z,3.60
2022-09-09T15:21:27.481Z,4.47
2022-09-09T15:23:54.606Z,5.80
2022-09-09T15:26:21.856Z,4.55
2022-09-09T15:28:50.722Z,5.70
2022-09-09T15:31:23.178Z,7.72
2022-09-09T15:34:04.342Z,6.05
2022-09-09T15:36:37.123Z,5.95
2022-09-09T15:39:06.266Z,7.60
2022-09-09T15:41:33.421Z,11.23
2022-09-09T15:44:03.893Z,8.60
2022-09-09T15:46:33.275Z,8.32
2022-09-09T15:49:11.781Z,8.27
2022-09-09T15:51:44.554Z,8.95
2022-09-09T15:54:14.392Z,9.57
2022-09-09T15:56:41.812Z,9.55
2022-09-09T15:59:08.453Z,7.47
2022-09-09T16:01:36.473Z,10.27
2022-09-09T16:04:03.621Z,8.38
2022-09-09T16:06:30.725Z,12.60
2022-09-09T16:08:59.133Z,14.52
2022-09-09T16:11:38.216Z,7.82
2022-09-09T16:14:06.317Z,8.95
2022-09-09T16:16:33.399Z,10.85
2022-09-09T16:19:06.751Z,14.93
2022-09-09T16:21:36.221Z,18.23
2022-09-09T16:24:03.929Z,13.82
2022-09-09T16:26:33.215Z,17.30
2022-09-09T16:29:01.071Z,27.27
2022-09-09T16:31:29.357Z,31.17
2022-09-09T16:33:56.763Z,32.05
2022-09-09T16:36:28.463Z,27.50
2022-09-09T16:39:00.605Z,22.58
2022-09-09T16:41:29.768Z,23.85
2022-09-09T16:44:03.320Z,27.48
2022-09-09T16:46:31.685Z,26.20
2022-09-09T16:48:59.485Z,27.53
2022-09-09T16:51:35.831Z,22.70
2022-09-09T16:54:05.008Z,24.17
2022-09-09T16:56:34.952Z,19.70
2022-09-09T16:59:03.578Z,23.42
2022-09-09T17:01:33.863Z,23.20
2022-09-09T17:04:03.469Z,28.63
2022-09-09T17:06:31.713Z,30.60
2022-09-09T17:09:00.598Z,34.42
2022-09-09T17:11:27.121Z,36.55
2022-09-09T17:13:55.559Z,40.08
2022-09-09T17:16:24.583Z,37.83
2022-09-09T17:18:52.744Z,41.33
2022-09-09T17:21:21.959Z,47.37
2022-09-09T17:23:51.365Z,44.35
2022-09-09T17:26:20.577Z,40.08
2022-09-09T17:28:47.267Z,54.33
2022-09-09T17:31:16.736Z,59.42
2022-09-09T17:33:46.991Z,62.70
2022-09-09T17:36:16.722Z,64.70
2022-09-09T17:38:43.654Z,77.93
2022-09-09T17:41:17.289Z,96.22
2022-09-09T17:43:44.382Z,97.70
2022-09-09T17:46:22.639Z,114.93
2022-09-09T17:48:51.409Z,134.75
2022-09-09T17:51:28.389Z,138.35
2022-09-09T17:53:56.977Z,148.07
2022-09-09T17:56:29.188Z,151.73
2022-09-09T17:58:55.780Z,164.73
2022-09-09T18:01:27.808Z,164.60
2022-09-09T18:03:57.381Z,165.23
2022-09-09T18:06:28.049Z,177.70
2022-09-09T18:09:01.368Z,171.85
2022-09-09T18:11:38.623Z,171.50
2022-09-09T18:14:06.007Z,191.88
2022-09-09T18:16:35.992Z,204.40
2022-09-09T18:19:05.627Z,199.30
2022-09-09T18:21:34.145Z,208.93
2022-09-09T18:24:07.589Z,212.13
2022-09-09T18:26:35.459Z,224.17
2022-09-09T18:29:06.678Z,234.60
2022-09-09T18:31:34.319Z,235.48
2022-09-09T18:34:03.831Z,236.90
2022-09-09T18:36:35.110Z,233.93
2022-09-09T18:39:03.691Z,239.53
2022-09-09T18:41:32.716Z,245.40
2022-09-09T18:44:02.440Z,251.02
2022-09-09T18:46:32.767Z,257.08
2022-09-09T18:49:02.139Z,266.00
2022-09-09T18:51:29.909Z,259.35
2022-09-09T18:54:02.937Z,263.40
2022-09-09T18:56:30.538Z,265.08
2022-09-09T18:58:59.367Z,265.88
2022-09-09T19:01:27.439Z,256.25
2022-09-09T19:03:54.466Z,262.50
2022-09-09T19:06:26.480Z,270.45
2022-09-09T19:08:57.486Z,257.30
2022-09-09T19:11:27.920Z,264.38
2022-09-09T19:14:00.248Z,262.75
2022-09-09T19:16:29.405Z,258.30
2022-09-09T19:18:58.736Z,259.57
2022-09-09T19:21:31.011Z,247.80
2022-09-09T19:24:06.627Z,256.98
2022-09-09T19:26:40.439Z,252.85
2022-09-09T19:29:10.079Z,258.02
2022-09-09T19:31:37.710Z,264.25
2022-09-09T19:34:04.872Z,256.50
2022-09-09T19:36:31.563Z,256.58
2022-09-09T19:38:58.661Z,274.23
2022-09-09T19:41:27.430Z,271.70
2022-09-09T19:44:01.710Z,273.30
2022-09-09T19:46:30.361Z,279.67
2022-09-09T19:48:58.082Z,281.08
2022-09-09T19:51:26.796Z,286.23
2022-09-09T19:53:58.211Z,288.33
2022-09-09T19:56:27.616Z,286.45
2022-09-09T19:58:54.610Z,281.17
2022-09-09T20:01:22.491Z,296.13
2022-09-09T20:03:52.227Z,290.33
2022-09-09T20:06:21.723Z,294.02
2022-09-09T20:08:48.549Z,291.23
2022-09-09T20:11:16.128Z,294.42
2022-09-09T20:13:43.588Z,288.23
2022-09-09T20:16:16.942Z,296.48
2022-09-09T20:18:46.081Z,300.37
2022-09-09T20:21:16.049Z,307.48
2022-09-09T20:23:46.519Z,321.50
2022-09-09T20:26:17.488Z,319.25
2022-09-09T20:28:45.121Z,315.17
2022-09-09T20:31:20.381Z,308.08
2022-09-09T20:33:48.146Z,314.77
2022-09-09T20:36:24.805Z,323.27
2022-09-09T20:38:59.688Z,328.05
2022-09-09T20:41:29.441Z,334.63
2022-09-09T20:44:01.665Z,341.38
2022-09-09T20:46:33.081Z,334.65
2022-09-09T20:49:03.092Z,332.15
2022-09-09T20:51:33.157Z,327.35
2022-09-09T20:54:06.675Z,343.67
2022-09-09T20:56:37.592Z,339.98
2022-09-09T20:59:05.638Z,334.13
2022-09-09T21:01:32.660Z,336.15
2022-09-09T21:04:06.661Z,334.33
2022-09-09T21:06:33.244Z,335.00
2022-09-09T21:08:59.822Z,338.98
2022-09-09T21:11:26.643Z,338.85
2022-09-09T21:13:53.342Z,335.53
2022-09-09T21:16:21.113Z,338.23
2022-09-09T21:18:50.670Z,325.20
2022-09-09T21:21:19.216Z,326.50
2022-09-09T21:23:45.861Z,331.93
2022-09-09T21:26:12.951Z,335.00
2022-09-09T21:28:40.064Z,332.27
2022-09-09T21:31:07.220Z,335.67
2022-09-09T21:33:34.598Z,337.38
2022-09-09T21:36:06.488Z,333.63
2022-09-09T21:38:33.405Z,327.33
2022-09-09T21:41:05.100Z,321.70
2022-09-09T21:43:32.368Z,322.40
2022-09-09T21:45:59.448Z,328.73
2022-09-09T21:48:26.293Z,339.55
2022-09-09T21:50:53.309Z,337.58
2022-09-09T21:53:20.406Z,335.08
2022-09-09T21:55:51.946Z,331.27
2022-09-09T21:58:18.512Z,342.58
2022-09-09T22:00:46.566Z,341.27
2022-09-09T22:03:14.904Z,334.88
2022-09-09T22:05:43.106Z,337.38
2022-09-09T22:08:11.964Z,335.80
2022-09-09T22:10:40.637Z,336.95
2022-09-09T22:13:07.620Z,347.60
2022-09-09T22:15:35.050Z,336.83
2022-09-09T22:18:03.526Z,341.90
2022-09-09T22:20:33.348Z,344.60
2022-09-09T22:23:00.939Z,334.02
2022-09-09T22:25:28.598Z,339.25
2022-09-09T22:27:56.254Z,347.38
2022-09-09T22:30:22.980Z,345.45
2022-09-09T22:32:53.897Z,349.90
2022-09-09T22:35:20.464Z,350.90
2022-09-09T22:37:47.333Z,349.58
2022-09-09T22:40:14.443Z,337.55
2022-09-09T22:42:41.760Z,342.13
2022-09-09T22:45:13.187Z,351.13
2022-09-09T22:47:42.695Z,354.95
2022-09-09T22:50:09.967Z,360.20
2022-09-09T22:52:37.017Z,356.35
2022-09-09T22:55:04.018Z,350.00
2022-09-09T22:57:31.103Z,358.20
2022-09-09T22:59:57.650Z,356.35
2022-09-09T23:02:26.436Z,351.48
2022-09-09T23:04:53.045Z,358.08
2022-09-09T23:07:20.515Z,365.05
2022-09-09T23:09:47.749Z,367.42
2022-09-09T23:12:14.816Z,367.23
2022-09-09T23:14:41.487Z,360.13
2022-09-09T23:17:08.741Z,370.58
2022-09-09T23:19:37.224Z,368.50
2022-09-09T23:22:04.126Z,372.67
2022-09-09T23:24:30.674Z,372.48
2022-09-09T23:26:57.228Z,371.85
2022-09-09T23:29:23.855Z,377.73
2022-09-09T23:31:50.391Z,371.48
2022-09-09T23:34:16.937Z,374.55
2022-09-09T23:36:43.622Z,384.00
2022-09-09T23:39:11.793Z,381.15
2022-09-09T23:41:40.244Z,387.48
2022-09-09T23:44:07.619Z,377.67
2022-09-09T23:46:35.208Z,377.98
2022-09-09T23:49:02.643Z,370.48
2022-09-09T23:51:30.635Z,374.15
2022-09-09T23:54:00.514Z,369.02
2022-09-09T23:56:39.779Z,369.60
2022-09-09T23:59:07.476Z,368.45
